createdAt,value
2023-03-24T00:00:04.814Z,95.30
2023-03-24T00:02:32.280Z,95.49
2023-03-24T00:04:58.684Z,95.53
2023-03-24T00:07:25.298Z,95.59
2023-03-24T00:09:51.242Z,95.70
2023-03-24T00:12:17.648Z,95.80
2023-03-24T00:14:44.063Z,95.83
2023-03-24T00:17:10.437Z,95.96
2023-03-24T00:19:36.778Z,96.15
2023-03-24T00:22:03.166Z,96.26
2023-03-24T00:24:29.691Z,96.32
2023-03-24T00:26:56.076Z,96.46
2023-03-24T00:29:22.434Z,96.56
2023-03-24T00:31:48.791Z,96.68
2023-03-24T00:34:15.238Z,96.78
2023-03-24T00:36:41.602Z,96.89
2023-03-24T00:39:07.938Z,96.99
2023-03-24T00:41:34.308Z,97.04
2023-03-24T00:44:00.680Z,97.07
2023-03-24T00:46:27.038Z,97.15
2023-03-24T00:48:53.346Z,97.12
2023-03-24T00:51:19.735Z,97.06
2023-03-24T00:53:46.070Z,97.16
2023-03-24T00:56:12.415Z,97.19
2023-03-24T00:58:38.747Z,97.19
2023-03-24T01:01:05.158Z,97.27
2023-03-24T01:03:31.463Z,97.31
2023-03-24T01:05:57.860Z,97.25
2023-03-24T01:08:24.181Z,97.33
2023-03-24T01:10:50.543Z,97.17
2023-03-24T01:13:16.888Z,97.23
2023-03-24T01:15:43.303Z,97.27
2023-03-24T01:18:09.729Z,97.23
2023-03-24T01:20:36.011Z,97.31
2023-03-24T01:23:02.334Z,97.34
2023-03-24T01:25:28.714Z,97.30
2023-03-24T01:27:55.101Z,97.35
2023-03-24T01:30:21.483Z,97.40
2023-03-24T01:32:47.906Z,97.41
2023-03-24T01:35:14.232Z,97.46
2023-03-24T01:37:40.577Z,97.43
2023-03-24T01:40:06.976Z,97.49
2023-03-24T01:42:33.311Z,97.50
2023-03-24T01:44:59.713Z,97.59
2023-03-24T01:47:26.019Z,97.63
2023-03-24T01:49:52.422Z,97.67
2023-03-24T01:52:18.787Z,97.72
2023-03-24T01:54:45.173Z,97.69
2023-03-24T01:57:11.579Z,97.80
2023-03-24T01:59:37.961Z,97.88
2023-03-24T02:02:04.274Z,97.94
2023-03-24T02:04:30.739Z,97.95
2023-03-24T02:06:57.006Z,97.98
2023-03-24T02:09:23.401Z,98.01
2023-03-24T02:11:49.731Z,98.01
2023-03-24T02:14:16.131Z,98.07
2023-03-24T02:16:42.496Z,98.13
2023-03-24T02:19:08.907Z,98.14
2023-03-24T02:21:35.269Z,98.21
2023-03-24T02:24:01.654Z,98.27
2023-03-24T02:26:28.023Z,98.29
2023-03-24T02:28:54.413Z,98.35
2023-03-24T02:31:20.837Z,98.36
2023-03-24T02:33:47.141Z,98.40
2023-03-24T02:36:13.502Z,98.46
2023-03-24T02:38:39.883Z,98.48
2023-03-24T02:41:06.281Z,98.56
2023-03-24T02:43:32.653Z,98.66
2023-03-24T02:45:59.014Z,98.73
2023-03-24T02:48:25.399Z,98.76
2023-03-24T02:50:51.845Z,98.88
2023-03-24T02:53:18.152Z,98.97
2023-03-24T02:55:44.470Z,99.09
2023-03-24T02:58:10.893Z,99.12
2023-03-24T03:00:37.252Z,99.27
2023-03-24T03:03:03.620Z,99.41
2023-03-24T03:05:29.926Z,99.52
2023-03-24T03:07:56.367Z,99.58
2023-03-24T03:10:22.672Z,99.66
2023-03-24T03:12:50.194Z,99.70
2023-03-24T03:15:15.488Z,99.76
2023-03-24T03:17:41.871Z,99.86
2023-03-24T03:20:08.214Z,100.00
2023-03-24T03:22:34.605Z,100.00
2023-03-24T03:25:00.937Z,100.00
2023-03-24T03:27:27.385Z,100.00
2023-03-24T03:29:53.658Z,100.00
2023-03-24T03:32:20.010Z,100.00
2023-03-24T03:34:46.350Z,100.00
2023-03-24T03:37:12.776Z,100.00
2023-03-24T03:39:39.086Z,100.00
2023-03-24T03:42:05.473Z,100.00
2023-03-24T03:44:31.898Z,100.00
2023-03-24T03:46:58.236Z,100.00
2023-03-24T03:49:24.613Z,100.00
2023-03-24T03:51:50.991Z,100.00
2023-03-24T03:54:17.360Z,100.00
2023-03-24T03:56:43.729Z,100.00
2023-03-24T03:59:10.041Z,100.00
2023-03-24T04:01:36.489Z,100.00
2023-03-24T04:04:02.777Z,100.00
2023-03-24T04:06:29.119Z,100.00
2023-03-24T04:08:58.000Z,100.00
2023-03-24T04:11:24.402Z,100.00
2023-03-24T04:13:50.759Z,100.00
2023-03-24T04:16:17.234Z,100.00
2023-03-24T04:18:43.519Z,100.00
2023-03-24T04:21:09.942Z,100.00
2023-03-24T04:23:36.345Z,100.00
2023-03-24T04:26:02.727Z,100.00
2023-03-24T04:28:29.083Z,100.00
2023-03-24T04:30:55.521Z,100.00
2023-03-24T04:33:21.893Z,100.00
2023-03-24T04:35:48.379Z,99.98
2023-03-24T04:38:14.761Z,99.98
2023-03-24T04:40:41.140Z,100.00
2023-03-24T04:43:07.479Z,100.00
2023-03-24T04:45:33.936Z,100.00
2023-03-24T04:48:00.333Z,100.00
2023-03-24T04:50:26.668Z,100.00
2023-03-24T04:52:53.095Z,100.00
2023-03-24T04:55:19.427Z,100.00
2023-03-24T04:57:45.802Z,100.00
2023-03-24T05:00:12.232Z,100.00
2023-03-24T05:02:38.603Z,100.00
2023-03-24T05:05:04.952Z,100.00
2023-03-24T05:07:31.358Z,100.00
2023-03-24T05:09:57.722Z,100.00
2023-03-24T05:12:24.082Z,100.00
2023-03-24T05:14:50.470Z,100.00
2023-03-24T05:17:16.788Z,100.00
2023-03-24T05:19:43.214Z,100.00
2023-03-24T05:22:09.549Z,100.00
2023-03-24T05:24:35.901Z,100.00
2023-03-24T05:27:02.273Z,100.00
2023-03-24T05:29:28.625Z,100.00
2023-03-24T05:31:54.979Z,100.00
2023-03-24T05:34:21.377Z,100.00
2023-03-24T05:36:47.735Z,100.00
2023-03-24T05:39:14.072Z,97.52
2023-03-24T05:41:40.413Z,92.54
2023-03-24T05:44:06.759Z,89.48
2023-03-24T05:46:33.150Z,88.90
2023-03-24T05:48:59.616Z,87.82
2023-03-24T05:51:25.988Z,88.49
2023-03-24T05:53:52.353Z,86.07
2023-03-24T05:56:19.084Z,84.62
2023-03-24T05:58:45.455Z,84.00
2023-03-24T06:01:11.755Z,76.28
2023-03-24T06:03:38.392Z,73.84
2023-03-24T06:06:04.511Z,71.40
2023-03-24T06:08:30.887Z,70.22
2023-03-24T06:10:57.238Z,70.68
2023-03-24T06:13:23.723Z,70.54
2023-03-24T06:15:50.115Z,69.54
2023-03-24T06:18:16.419Z,68.12
2023-03-24T06:20:42.839Z,68.18
2023-03-24T06:23:09.230Z,68.97
2023-03-24T06:25:35.543Z,68.14
2023-03-24T06:28:02.048Z,65.96
2023-03-24T06:30:30.697Z,66.71
2023-03-24T06:32:54.729Z,67.98
2023-03-24T06:35:21.160Z,67.71
2023-03-24T06:37:47.534Z,65.08
2023-03-24T06:40:13.868Z,66.36
2023-03-24T06:42:40.297Z,67.54
2023-03-24T06:45:06.675Z,68.34
2023-03-24T06:47:33.363Z,68.17
2023-03-24T06:49:59.719Z,67.87
2023-03-24T06:52:26.054Z,65.72
2023-03-24T06:54:52.463Z,64.50
2023-03-24T06:57:18.830Z,63.72
2023-03-24T06:59:45.698Z,63.82
2023-03-24T07:02:12.430Z,63.03
2023-03-24T07:04:38.800Z,62.60
2023-03-24T07:07:38.136Z,62.21
2023-03-24T07:09:31.622Z,61.96
2023-03-24T07:11:58.498Z,61.63
2023-03-24T07:14:25.670Z,61.84
2023-03-24T07:16:53.069Z,61.83
2023-03-24T07:19:22.231Z,62.06
2023-03-24T07:21:51.366Z,60.70
2023-03-24T07:24:17.846Z,59.71
2023-03-24T07:26:44.218Z,58.77
2023-03-24T07:29:10.906Z,57.71
2023-03-24T07:31:37.264Z,57.54
2023-03-24T07:34:03.573Z,57.33
2023-03-24T07:36:33.163Z,55.46
2023-03-24T07:38:57.441Z,55.38
2023-03-24T07:41:24.121Z,54.45
2023-03-24T07:43:50.502Z,54.53
2023-03-24T07:46:16.931Z,56.61
2023-03-24T07:48:43.252Z,54.45
2023-03-24T07:51:09.610Z,54.06
2023-03-24T07:53:36.088Z,53.46
2023-03-24T07:56:02.446Z,54.18
2023-03-24T07:58:28.795Z,53.08
2023-03-24T08:00:55.173Z,52.89
2023-03-24T08:03:21.654Z,52.54
2023-03-24T08:05:48.361Z,52.72
2023-03-24T08:08:14.638Z,52.74
2023-03-24T08:10:41.008Z,52.93
2023-03-24T08:13:07.419Z,53.07
2023-03-24T08:15:34.874Z,51.63
2023-03-24T08:18:01.311Z,51.34
2023-03-24T08:20:27.577Z,50.75
2023-03-24T08:22:53.959Z,49.97
2023-03-24T08:25:20.344Z,49.96
2023-03-24T08:27:46.687Z,49.38
2023-03-24T08:30:13.049Z,49.16
2023-03-24T08:32:39.429Z,48.91
2023-03-24T08:35:05.866Z,48.13
2023-03-24T08:37:32.229Z,47.67
2023-03-24T08:39:58.661Z,47.75
2023-03-24T08:42:24.994Z,46.25
2023-03-24T08:44:51.355Z,46.61
2023-03-24T08:47:17.781Z,46.35
2023-03-24T08:49:44.162Z,45.04
2023-03-24T08:52:10.537Z,44.06
2023-03-24T08:54:36.902Z,43.90
2023-03-24T08:57:03.366Z,42.79
2023-03-24T08:59:29.690Z,42.78
2023-03-24T09:01:56.090Z,43.18
2023-03-24T09:04:22.483Z,43.15
2023-03-24T09:06:49.845Z,43.23
2023-03-24T09:09:16.161Z,43.29
2023-03-24T09:11:42.574Z,42.65
2023-03-24T09:14:08.944Z,42.63
2023-03-24T09:16:35.363Z,42.10
2023-03-24T09:19:01.794Z,41.93
2023-03-24T09:21:28.138Z,40.85
2023-03-24T09:23:54.473Z,40.08
2023-03-24T09:26:23.393Z,40.24
2023-03-24T09:28:49.717Z,39.48
2023-03-24T09:31:16.136Z,39.29
2023-03-24T09:33:42.870Z,38.77
2023-03-24T09:36:09.283Z,38.79
2023-03-24T09:38:36.664Z,38.55
2023-03-24T09:41:03.381Z,38.19
2023-03-24T09:43:29.450Z,38.26
2023-03-24T09:45:55.804Z,37.80
2023-03-24T09:48:22.187Z,37.13
2023-03-24T09:50:48.593Z,36.87
2023-03-24T09:53:14.943Z,36.30
2023-03-24T09:55:41.631Z,35.72
2023-03-24T09:58:07.995Z,35.25
2023-03-24T10:00:34.553Z,35.78
2023-03-24T10:03:00.732Z,35.77
2023-03-24T10:05:27.040Z,35.27
2023-03-24T10:07:57.036Z,35.00
2023-03-24T10:10:23.791Z,34.85
2023-03-24T10:12:50.152Z,34.44
2023-03-24T10:15:24.346Z,34.29
2023-03-24T10:17:42.990Z,34.00
2023-03-24T10:20:09.318Z,34.07
2023-03-24T10:22:35.718Z,33.80
2023-03-24T10:25:02.128Z,33.84
2023-03-24T10:27:29.551Z,33.50
2023-03-24T10:29:55.934Z,33.70
2023-03-24T10:32:22.580Z,33.27
2023-03-24T10:34:48.811Z,32.87
2023-03-24T10:37:15.261Z,33.27
2023-03-24T10:39:45.004Z,32.77
2023-03-24T10:42:08.248Z,32.72
2023-03-24T10:44:34.609Z,32.27
2023-03-24T10:47:01.449Z,32.27
2023-03-24T10:49:30.280Z,32.18
2023-03-24T10:51:56.622Z,32.04
2023-03-24T10:54:23.051Z,31.97
2023-03-24T10:56:49.529Z,31.03
2023-03-24T10:59:15.872Z,30.52
2023-03-24T11:01:42.243Z,31.10
2023-03-24T11:04:08.592Z,31.45
2023-03-24T11:06:37.089Z,31.38
2023-03-24T11:09:03.473Z,31.14
2023-03-24T11:11:29.799Z,31.40
2023-03-24T11:13:56.235Z,31.30
2023-03-24T11:16:22.701Z,30.99
2023-03-24T11:18:49.084Z,30.88
2023-03-24T11:21:15.431Z,31.68
2023-03-24T11:23:41.905Z,32.15
2023-03-24T11:26:08.271Z,30.61
2023-03-24T11:28:34.648Z,30.62
2023-03-24T11:31:01.136Z,33.16
2023-03-24T11:33:34.553Z,31.20
2023-03-24T11:36:05.043Z,30.62
2023-03-24T11:38:20.183Z,30.44
2023-03-24T11:40:46.523Z,30.57
2023-03-24T11:43:12.917Z,30.02
2023-03-24T11:45:39.281Z,29.26
2023-03-24T11:48:05.687Z,29.30
2023-03-24T11:50:32.026Z,29.67
2023-03-24T11:52:58.407Z,29.64
2023-03-24T11:55:24.913Z,29.34
2023-03-24T11:57:51.251Z,28.79
2023-03-24T12:00:17.945Z,30.01
2023-03-24T12:02:44.428Z,29.03
2023-03-24T12:05:10.656Z,28.87
2023-03-24T12:07:37.030Z,28.98
2023-03-24T12:10:03.386Z,28.17
2023-03-24T12:12:29.820Z,27.64
2023-03-24T12:14:56.209Z,27.46
2023-03-24T12:17:22.644Z,27.46
2023-03-24T12:19:48.936Z,28.25
2023-03-24T12:22:15.350Z,27.73
2023-03-24T12:24:41.740Z,29.42
2023-03-24T12:27:08.138Z,30.27
2023-03-24T12:29:34.521Z,29.54
2023-03-24T12:32:01.562Z,28.74
2023-03-24T12:34:27.949Z,27.83
2023-03-24T12:36:54.364Z,27.32
2023-03-24T12:39:20.729Z,27.38
2023-03-24T12:41:47.141Z,27.22
2023-03-24T12:44:13.494Z,27.41
2023-03-24T12:46:47.906Z,27.32
2023-03-24T12:49:06.274Z,27.01
2023-03-24T12:51:32.618Z,27.28
2023-03-24T12:53:59.014Z,27.23
2023-03-24T12:56:25.325Z,27.95
2023-03-24T12:58:51.736Z,26.84
2023-03-24T13:01:18.229Z,28.41
2023-03-24T13:03:44.471Z,26.78
2023-03-24T13:06:16.979Z,27.02
2023-03-24T13:08:37.220Z,26.93
2023-03-24T13:11:03.964Z,26.67
2023-03-24T13:13:30.288Z,26.75
2023-03-24T13:15:56.637Z,26.87
2023-03-24T13:18:23.242Z,27.10
2023-03-24T13:20:49.600Z,26.95
2023-03-24T13:23:15.991Z,27.20
2023-03-24T13:25:42.413Z,26.92
2023-03-24T13:28:08.822Z,27.05
2023-03-24T13:30:35.183Z,26.99
2023-03-24T13:33:01.844Z,27.20
2023-03-24T13:35:28.141Z,27.27
2023-03-24T13:37:54.757Z,27.03
2023-03-24T13:40:21.194Z,27.55
2023-03-24T13:42:47.522Z,27.56
2023-03-24T13:45:14.060Z,27.68
2023-03-24T13:47:40.453Z,27.78
2023-03-24T13:50:06.844Z,27.88
2023-03-24T13:52:33.360Z,28.41
2023-03-24T13:54:59.789Z,28.10
2023-03-24T13:57:26.154Z,28.19
2023-03-24T13:59:52.599Z,28.08
2023-03-24T14:02:19.253Z,28.35
2023-03-24T14:04:46.077Z,28.06
2023-03-24T14:07:12.409Z,28.08
2023-03-24T14:09:38.841Z,28.14
2023-03-24T14:12:06.317Z,28.10
2023-03-24T14:14:31.598Z,28.03
2023-03-24T14:16:57.971Z,28.20
2023-03-24T14:19:24.309Z,34.55
2023-03-24T14:21:50.761Z,39.74
2023-03-24T14:24:17.117Z,39.65
2023-03-24T14:26:43.484Z,38.65
2023-03-24T14:29:09.956Z,38.39
2023-03-24T14:31:36.374Z,36.63
2023-03-24T14:34:02.704Z,34.36
2023-03-24T14:36:29.066Z,34.63
2023-03-24T14:38:55.445Z,36.45
2023-03-24T14:41:21.781Z,35.07
2023-03-24T14:43:48.218Z,32.78
2023-03-24T14:46:14.627Z,32.80
2023-03-24T14:48:40.923Z,31.51
2023-03-24T14:51:08.393Z,31.62
2023-03-24T14:53:34.737Z,31.00
2023-03-24T14:56:01.070Z,31.95
2023-03-24T14:58:27.632Z,31.81
2023-03-24T15:01:06.353Z,32.24
2023-03-24T15:03:20.503Z,32.53
2023-03-24T15:05:46.773Z,31.62
2023-03-24T15:08:13.115Z,31.48
2023-03-24T15:10:39.536Z,31.60
2023-03-24T15:13:05.915Z,31.19
2023-03-24T15:15:32.281Z,31.37
2023-03-24T15:17:59.162Z,31.46
2023-03-24T15:20:25.383Z,31.19
2023-03-24T15:22:52.984Z,31.75
2023-03-24T15:25:19.254Z,31.82
2023-03-24T15:27:45.682Z,31.50
2023-03-24T15:30:13.277Z,31.90
2023-03-24T15:32:39.691Z,31.26
2023-03-24T15:35:06.056Z,31.64
2023-03-24T15:37:32.695Z,31.51
2023-03-24T15:40:09.106Z,31.24
2023-03-24T15:42:25.375Z,31.17
2023-03-24T15:44:51.741Z,31.65
2023-03-24T15:47:18.127Z,31.95
2023-03-24T15:49:44.559Z,32.44
2023-03-24T15:52:10.867Z,32.67
2023-03-24T15:54:37.196Z,32.67
2023-03-24T15:57:03.598Z,33.17
2023-03-24T15:59:30.045Z,32.74
2023-03-24T16:01:56.417Z,32.39
2023-03-24T16:04:22.901Z,33.14
2023-03-24T16:06:50.567Z,33.08
2023-03-24T16:09:15.533Z,33.75
2023-03-24T16:11:41.978Z,33.65
2023-03-24T16:14:08.343Z,34.40
2023-03-24T16:16:34.786Z,34.05
2023-03-24T16:19:01.243Z,33.78
2023-03-24T16:21:27.729Z,34.03
2023-03-24T16:23:53.954Z,34.08
2023-03-24T16:26:20.321Z,34.48
2023-03-24T16:28:46.678Z,34.48
2023-03-24T16:31:13.135Z,35.16
2023-03-24T16:33:39.434Z,35.20
2023-03-24T16:36:06.003Z,35.42
2023-03-24T16:38:32.326Z,35.79
2023-03-24T16:40:58.718Z,35.65
2023-03-24T16:43:25.102Z,35.60
2023-03-24T16:45:51.550Z,36.08
2023-03-24T16:48:17.811Z,36.24
2023-03-24T16:50:44.501Z,36.32
2023-03-24T16:53:10.845Z,36.44
2023-03-24T16:55:37.292Z,36.57
2023-03-24T16:58:03.681Z,36.79
2023-03-24T17:00:30.202Z,36.85
2023-03-24T17:02:56.843Z,37.13
2023-03-24T17:05:23.166Z,37.40
2023-03-24T17:07:49.565Z,37.15
2023-03-24T17:10:15.980Z,37.67
2023-03-24T17:12:42.359Z,37.57
2023-03-24T17:15:08.747Z,37.46
2023-03-24T17:17:35.182Z,37.71
2023-03-24T17:20:03.957Z,37.71
2023-03-24T17:22:27.922Z,38.36
2023-03-24T17:24:54.307Z,38.01
2023-03-24T17:27:20.735Z,38.37
2023-03-24T17:29:47.175Z,39.32
2023-03-24T17:32:13.552Z,39.93
2023-03-24T17:34:39.891Z,40.73
2023-03-24T17:37:06.288Z,41.12
2023-03-24T17:39:32.694Z,41.59
2023-03-24T17:41:59.082Z,42.21
2023-03-24T17:44:25.436Z,42.62
2023-03-24T17:46:51.802Z,42.55
2023-03-24T17:49:18.185Z,42.70
2023-03-24T17:51:44.551Z,43.16
2023-03-24T17:54:10.887Z,44.13
2023-03-24T17:56:37.298Z,44.12
2023-03-24T17:59:03.635Z,43.96
2023-03-24T18:01:30.265Z,44.26
2023-03-24T18:03:56.433Z,44.95
2023-03-24T18:06:22.841Z,45.00
2023-03-24T18:08:49.215Z,44.92
2023-03-24T18:11:15.652Z,45.30
2023-03-24T18:13:42.077Z,45.42
2023-03-24T18:16:19.824Z,45.42
2023-03-24T18:18:34.776Z,45.30
2023-03-24T18:21:01.197Z,45.65
2023-03-24T18:23:27.559Z,45.48
2023-03-24T18:25:53.938Z,45.62
2023-03-24T18:28:20.266Z,46.04
2023-03-24T18:30:46.718Z,46.21
2023-03-24T18:33:13.008Z,45.91
2023-03-24T18:35:39.474Z,46.26
2023-03-24T18:38:06.081Z,45.85
2023-03-24T18:40:32.475Z,46.30
2023-03-24T18:42:58.802Z,46.21
2023-03-24T18:45:25.206Z,46.24
2023-03-24T18:47:51.636Z,46.53
2023-03-24T18:50:18.194Z,46.67
2023-03-24T18:52:44.463Z,46.75
2023-03-24T18:55:10.812Z,46.52
2023-03-24T18:57:37.172Z,46.74
2023-03-24T19:00:03.534Z,46.87
2023-03-24T19:02:29.983Z,46.57
2023-03-24T19:04:56.249Z,46.92
2023-03-24T19:07:22.623Z,46.78
2023-03-24T19:09:49.023Z,47.12
2023-03-24T19:12:15.387Z,47.45
2023-03-24T19:14:41.902Z,47.55
2023-03-24T19:17:08.322Z,47.76
2023-03-24T19:19:34.620Z,47.33
2023-03-24T19:22:01.020Z,47.60
2023-03-24T19:24:27.400Z,47.56
2023-03-24T19:26:53.743Z,47.80
2023-03-24T19:29:20.238Z,47.88
2023-03-24T19:31:46.563Z,48.18
2023-03-24T19:34:13.003Z,48.08
2023-03-24T19:36:39.403Z,48.12
2023-03-24T19:39:05.845Z,48.15
2023-03-24T19:41:32.201Z,48.24
2023-03-24T19:43:58.581Z,48.18
2023-03-24T19:46:25.194Z,48.54
2023-03-24T19:48:54.477Z,49.43
2023-03-24T19:51:20.764Z,49.33
2023-03-24T19:53:47.125Z,49.07
2023-03-24T19:56:13.494Z,48.88
2023-03-24T19:58:40.371Z,49.28
2023-03-24T20:01:06.676Z,49.32
2023-03-24T20:03:33.126Z,49.66
2023-03-24T20:05:59.461Z,49.46
2023-03-24T20:08:25.899Z,49.17
2023-03-24T20:10:52.206Z,49.22
2023-03-24T20:13:18.618Z,49.62
2023-03-24T20:15:45.029Z,49.23
2023-03-24T20:18:11.303Z,49.32
2023-03-24T20:20:37.688Z,49.78
2023-03-24T20:23:04.098Z,49.91
2023-03-24T20:25:30.449Z,49.92
2023-03-24T20:27:56.810Z,50.00
2023-03-24T20:30:23.135Z,50.03
2023-03-24T20:32:49.561Z,50.09
2023-03-24T20:35:16.201Z,50.14
2023-03-24T20:37:42.687Z,50.34
2023-03-24T20:40:09.011Z,53.96
2023-03-24T20:42:35.469Z,55.80
2023-03-24T20:45:01.818Z,57.66
2023-03-24T20:47:28.205Z,58.04
2023-03-24T20:49:54.557Z,58.60
2023-03-24T20:52:20.899Z,58.21
2023-03-24T20:54:47.218Z,58.91
2023-03-24T20:57:13.862Z,59.02
2023-03-24T20:59:40.186Z,60.09
2023-03-24T21:02:06.657Z,59.76
2023-03-24T21:04:32.940Z,60.41
2023-03-24T21:06:59.371Z,60.13
2023-03-24T21:09:28.796Z,60.19
2023-03-24T21:11:55.231Z,59.90
2023-03-24T21:14:21.592Z,59.90
2023-03-24T21:16:48.052Z,59.69
2023-03-24T21:19:14.325Z,59.66
2023-03-24T21:21:40.686Z,59.87
2023-03-24T21:24:07.058Z,59.95
2023-03-24T21:26:33.449Z,60.07
2023-03-24T21:28:59.857Z,60.03
2023-03-24T21:31:26.274Z,60.24
2023-03-24T21:33:52.659Z,59.14
2023-03-24T21:36:19.074Z,59.17
2023-03-24T21:38:45.385Z,59.23
2023-03-24T21:41:11.747Z,59.48
2023-03-24T21:43:38.099Z,59.50
2023-03-24T21:46:04.437Z,59.44
2023-03-24T21:48:31.004Z,59.28
2023-03-24T21:50:57.327Z,58.97
2023-03-24T21:53:23.665Z,59.45
2023-03-24T21:55:50.240Z,59.64
2023-03-24T21:58:16.364Z,59.53
2023-03-24T22:00:42.706Z,59.09
2023-03-24T22:03:09.210Z,58.65
2023-03-24T22:05:35.449Z,58.53
2023-03-24T22:08:01.772Z,58.06
2023-03-24T22:10:28.179Z,59.32
2023-03-24T22:12:54.552Z,60.93
2023-03-24T22:15:20.944Z,61.03
2023-03-24T22:17:47.279Z,61.96
2023-03-24T22:20:13.724Z,63.03
2023-03-24T22:22:40.058Z,64.10
2023-03-24T22:25:06.649Z,65.16
2023-03-24T22:27:32.987Z,66.42
2023-03-24T22:29:59.354Z,67.77
2023-03-24T22:32:25.822Z,69.09
2023-03-24T22:34:52.155Z,70.45
2023-03-24T22:37:18.498Z,71.76
2023-03-24T22:39:44.865Z,73.01
2023-03-24T22:42:11.194Z,74.32
2023-03-24T22:44:37.540Z,75.44
2023-03-24T22:47:03.933Z,76.53
2023-03-24T22:49:30.273Z,77.49
2023-03-24T22:51:56.644Z,78.37
2023-03-24T22:54:23.016Z,79.23
2023-03-24T22:56:49.442Z,80.17
2023-03-24T22:59:15.818Z,81.04
2023-03-24T23:01:42.181Z,81.76
2023-03-24T23:04:08.809Z,82.51
2023-03-24T23:06:35.156Z,83.36
2023-03-24T23:09:01.565Z,84.05
2023-03-24T23:11:27.924Z,84.62
2023-03-24T23:13:54.304Z,85.29
2023-03-24T23:16:20.673Z,85.95
2023-03-24T23:18:46.981Z,86.56
2023-03-24T23:21:13.295Z,87.27
2023-03-24T23:23:39.654Z,87.83
2023-03-24T23:26:05.980Z,88.40
2023-03-24T23:28:32.363Z,88.93
2023-03-24T23:30:58.686Z,89.46
2023-03-24T23:33:25.111Z,89.98
2023-03-24T23:35:51.629Z,90.52
2023-03-24T23:38:17.802Z,91.00
2023-03-24T23:40:44.181Z,91.53
2023-03-24T23:43:10.509Z,91.98
2023-03-24T23:45:36.944Z,92.41
2023-03-24T23:48:03.295Z,92.93
2023-03-24T23:50:29.639Z,93.29
2023-03-24T23:52:56.001Z,93.72
2023-03-24T23:55:22.331Z,94.17
2023-03-24T23:57:48.759Z,94.47
